sensor_id;sensor_type;location;lat;lon;timestamp;pressure;altitude;pressure_sealevel;temperature;humidity
9335;BME280;4706;41.844;26.082;2023-04-24T00:00:45;100737.06;;;13.54;69.50
9335;BME280;4706;41.844;26.082;2023-04-24T00:03:10;100736.16;;;13.36;69.50
9335;BME280;4706;41.844;26.082;2023-04-24T00:05:36;100744.88;;;13.29;70.13
9335;BME280;4706;41.844;26.082;2023-04-24T00:08:01;100745.72;;;13.16;70.89
9335;BME280;4706;41.844;26.082;2023-04-24T00:10:27;100741.97;;;13.12;71.45
9335;BME280;4706;41.844;26.082;2023-04-24T00:12:52;100740.72;;;13.18;71.45
9335;BME280;4706;41.844;26.082;2023-04-24T00:15:18;100741.41;;;13.24;71.18
9335;BME280;4706;41.844;26.082;2023-04-24T00:17:44;100742.66;;;13.18;71.28
9335;BME280;4706;41.844;26.082;2023-04-24T00:20:09;100739.59;;;13.19;71.23
9335;BME280;4706;41.844;26.082;2023-04-24T00:22:35;100738.38;;;13.25;71.65
9335;BME280;4706;41.844;26.082;2023-04-24T00:25:01;100731.41;;;13.28;71.24
9335;BME280;4706;41.844;26.082;2023-04-24T00:27:27;100731.06;;;13.07;71.88
9335;BME280;4706;41.844;26.082;2023-04-24T00:29:52;100734.81;;;13.11;71.39
9335;BME280;4706;41.844;26.082;2023-04-24T00:32:18;100726.59;;;13.20;70.81
9335;BME280;4706;41.844;26.082;2023-04-24T00:34:44;100716.56;;;12.79;71.96
9335;BME280;4706;41.844;26.082;2023-04-24T00:37:09;100721.75;;;12.80;72.32
9335;BME280;4706;41.844;26.082;2023-04-24T00:39:35;100716.84;;;12.77;72.70
9335;BME280;4706;41.844;26.082;2023-04-24T00:42:00;100726.06;;;12.73;73.18
9335;BME280;4706;41.844;26.082;2023-04-24T00:44:27;100710.56;;;12.63;73.48
9335;BME280;4706;41.844;26.082;2023-04-24T00:46:54;100723.19;;;12.78;72.98
9335;BME280;4706;41.844;26.082;2023-04-24T00:49:21;100719.59;;;12.77;72.85
9335;BME280;4706;41.844;26.082;2023-04-24T00:51:47;100713.91;;;12.74;72.50
9335;BME280;4706;41.844;26.082;2023-04-24T00:54:13;100716.53;;;12.56;73.64
9335;BME280;4706;41.844;26.082;2023-04-24T00:56:39;100718.69;;;12.46;74.24
9335;BME280;4706;41.844;26.082;2023-04-24T00:59:06;100713.06;;;12.37;74.14
9335;BME280;4706;41.844;26.082;2023-04-24T01:01:32;100706.78;;;12.23;75.19
9335;BME280;4706;41.844;26.082;2023-04-24T01:03:58;100719.72;;;12.22;75.80
9335;BME280;4706;41.844;26.082;2023-04-24T01:06:27;100721.13;;;12.33;75.36
9335;BME280;4706;41.844;26.082;2023-04-24T01:08:54;100713.66;;;12.48;74.27
9335;BME280;4706;41.844;26.082;2023-04-24T01:11:21;100709.66;;;12.54;73.64
9335;BME280;4706;41.844;26.082;2023-04-24T01:13:47;100703.16;;;12.50;74.16
9335;BME280;4706;41.844;26.082;2023-04-24T01:16:14;100700.41;;;12.22;74.93
9335;BME280;4706;41.844;26.082;2023-04-24T01:18:40;100693.81;;;11.96;75.75
9335;BME280;4706;41.844;26.082;2023-04-24T01:21:08;100706.72;;;12.36;74.58
9335;BME280;4706;41.844;26.082;2023-04-24T01:23:34;100699.19;;;12.28;74.71
9335;BME280;4706;41.844;26.082;2023-04-24T01:26:00;100690.22;;;12.23;75.32
9335;BME280;4706;41.844;26.082;2023-04-24T01:28:25;100689.81;;;12.15;75.34
9335;BME280;4706;41.844;26.082;2023-04-24T01:30:52;100694.28;;;12.25;75.12
9335;BME280;4706;41.844;26.082;2023-04-24T01:33:18;100686.47;;;12.19;75.24
9335;BME280;4706;41.844;26.082;2023-04-24T01:35:43;100689.22;;;12.19;74.98
9335;BME280;4706;41.844;26.082;2023-04-24T01:38:09;100685.75;;;12.13;75.65
9335;BME280;4706;41.844;26.082;2023-04-24T01:40:34;100677.16;;;12.14;76.11
9335;BME280;4706;41.844;26.082;2023-04-24T01:43:00;100686.94;;;12.21;75.92
9335;BME280;4706;41.844;26.082;2023-04-24T01:45:26;100690.22;;;12.23;75.87
9335;BME280;4706;41.844;26.082;2023-04-24T01:47:51;100686.25;;;12.15;76.05
9335;BME280;4706;41.844;26.082;2023-04-24T01:50:18;100689.84;;;12.02;76.63
9335;BME280;4706;41.844;26.082;2023-04-24T01:52:44;100686.38;;;11.96;77.04
9335;BME280;4706;41.844;26.082;2023-04-24T01:55:09;100684.44;;;11.97;77.06
9335;BME280;4706;41.844;26.082;2023-04-24T01:57:35;100679.22;;;11.95;77.31
9335;BME280;4706;41.844;26.082;2023-04-24T02:00:02;100678.59;;;11.98;76.58
9335;BME280;4706;41.844;26.082;2023-04-24T02:02:29;100673.69;;;11.81;77.11
9335;BME280;4706;41.844;26.082;2023-04-24T02:04:55;100678.47;;;11.76;77.55
9335;BME280;4706;41.844;26.082;2023-04-24T02:07:21;100671.25;;;11.66;78.26
9335;BME280;4706;41.844;26.082;2023-04-24T02:09:46;100661.25;;;11.70;78.42
9335;BME280;4706;41.844;26.082;2023-04-24T02:12:12;100650.91;;;11.62;78.61
9335;BME280;4706;41.844;26.082;2023-04-24T02:14:38;100655.63;;;11.48;79.65
9335;BME280;4706;41.844;26.082;2023-04-24T02:17:03;100639.59;;;11.50;80.05
9335;BME280;4706;41.844;26.082;2023-04-24T02:19:30;100664.03;;;11.10;81.64
9335;BME280;4706;41.844;26.082;2023-04-24T02:21:56;100663.44;;;10.94;83.41
9335;BME280;4706;41.844;26.082;2023-04-24T02:24:21;100658.84;;;11.22;82.84
9335;BME280;4706;41.844;26.082;2023-04-24T02:26:47;100647.84;;;11.50;81.31
9335;BME280;4706;41.844;26.082;2023-04-24T02:29:12;100642.13;;;11.46;81.42
9335;BME280;4706;41.844;26.082;2023-04-24T02:31:38;100652.66;;;11.44;82.31
9335;BME280;4706;41.844;26.082;2023-04-24T02:34:03;100639.09;;;11.48;81.96
9335;BME280;4706;41.844;26.082;2023-04-24T02:36:28;100652.91;;;11.89;79.71
9335;BME280;4706;41.844;26.082;2023-04-24T02:38:55;100652.38;;;12.01;79.00
9335;BME280;4706;41.844;26.082;2023-04-24T02:41:21;100660.72;;;11.96;78.79
9335;BME280;4706;41.844;26.082;2023-04-24T02:43:46;100657.28;;;11.90;78.80
9335;BME280;4706;41.844;26.082;2023-04-24T02:46:12;100664.00;;;11.84;78.91
9335;BME280;4706;41.844;26.082;2023-04-24T02:48:37;100666.16;;;12.01;77.56
9335;BME280;4706;41.844;26.082;2023-04-24T02:51:03;100655.22;;;12.09;76.98
9335;BME280;4706;41.844;26.082;2023-04-24T02:53:28;100667.84;;;12.24;76.16
9335;BME280;4706;41.844;26.082;2023-04-24T02:55:56;100676.94;;;12.11;76.02
9335;BME280;4706;41.844;26.082;2023-04-24T02:58:21;100674.03;;;12.07;75.95
9335;BME280;4706;41.844;26.082;2023-04-24T03:00:47;100674.63;;;12.04;76.49
9335;BME280;4706;41.844;26.082;2023-04-24T03:03:12;100682.28;;;12.07;76.20
9335;BME280;4706;41.844;26.082;2023-04-24T03:05:38;100688.09;;;12.06;76.40
9335;BME280;4706;41.844;26.082;2023-04-24T03:08:04;100680.75;;;12.01;76.49
9335;BME280;4706;41.844;26.082;2023-04-24T03:10:30;100681.56;;;12.02;76.49
9335;BME280;4706;41.844;26.082;2023-04-24T03:12:55;100675.03;;;11.98;76.33
9335;BME280;4706;41.844;26.082;2023-04-24T03:15:21;100674.63;;;11.90;76.95
9335;BME280;4706;41.844;26.082;2023-04-24T03:17:46;100673.41;;;11.97;76.53
9335;BME280;4706;41.844;26.082;2023-04-24T03:20:13;100669.94;;;11.91;76.75
9335;BME280;4706;41.844;26.082;2023-04-24T03:22:38;100673.38;;;11.83;76.94
9335;BME280;4706;41.844;26.082;2023-04-24T03:25:04;100677.06;;;11.78;77.53
9335;BME280;4706;41.844;26.082;2023-04-24T03:27:30;100676.31;;;11.73;77.82
9335;BME280;4706;41.844;26.082;2023-04-24T03:29:55;100671.63;;;11.73;78.11
9335;BME280;4706;41.844;26.082;2023-04-24T03:32:22;100673.78;;;11.76;77.87
9335;BME280;4706;41.844;26.082;2023-04-24T03:34:48;100683.88;;;11.81;77.82
9335;BME280;4706;41.844;26.082;2023-04-24T03:37:14;100685.97;;;11.89;76.83
9335;BME280;4706;41.844;26.082;2023-04-24T03:39:41;100694.03;;;11.85;76.81
9335;BME280;4706;41.844;26.082;2023-04-24T03:42:07;100695.13;;;11.84;76.68
9335;BME280;4706;41.844;26.082;2023-04-24T03:44:34;100692.16;;;11.81;76.45
9335;BME280;4706;41.844;26.082;2023-04-24T03:47:00;100694.50;;;11.60;77.36
9335;BME280;4706;41.844;26.082;2023-04-24T03:49:25;100698.06;;;11.60;77.43
9335;BME280;4706;41.844;26.082;2023-04-24T03:51:51;100695.41;;;11.55;77.50
9335;BME280;4706;41.844;26.082;2023-04-24T03:54:18;100684.38;;;11.41;78.06
9335;BME280;4706;41.844;26.082;2023-04-24T03:56:43;100703.34;;;11.43;78.58
9335;BME280;4706;41.844;26.082;2023-04-24T03:59:09;100697.94;;;11.38;78.43
9335;BME280;4706;41.844;26.082;2023-04-24T04:01:35;100697.00;;;11.29;79.27
9335;BME280;4706;41.844;26.082;2023-04-24T04:04:03;100700.38;;;11.39;78.71
9335;BME280;4706;41.844;26.082;2023-04-24T04:06:29;100694.03;;;11.39;78.84
9335;BME280;4706;41.844;26.082;2023-04-24T04:08:56;100716.63;;;11.55;78.13
9335;BME280;4706;41.844;26.082;2023-04-24T04:11:22;100714.16;;;11.53;78.64
9335;BME280;4706;41.844;26.082;2023-04-24T04:13:47;100705.41;;;11.65;78.27
9335;BME280;4706;41.844;26.082;2023-04-24T04:16:13;100699.81;;;11.70;77.81
9335;BME280;4706;41.844;26.082;2023-04-24T04:18:39;100711.25;;;11.77;77.44
9335;BME280;4706;41.844;26.082;2023-04-24T04:21:05;100714.09;;;11.72;78.29
9335;BME280;4706;41.844;26.082;2023-04-24T04:23:30;100705.75;;;11.91;77.75
9335;BME280;4706;41.844;26.082;2023-04-24T04:25:57;100708.59;;;12.00;76.96
9335;BME280;4706;41.844;26.082;2023-04-24T04:28:22;100696.88;;;12.08;76.29
9335;BME280;4706;41.844;26.082;2023-04-24T04:30:50;100702.38;;;12.22;76.13
9335;BME280;4706;41.844;26.082;2023-04-24T04:33:20;100712.69;;;12.30;76.02
9335;BME280;4706;41.844;26.082;2023-04-24T04:35:45;100714.91;;;12.42;75.52
9335;BME280;4706;41.844;26.082;2023-04-24T04:38:14;100720.28;;;12.60;74.13
9335;BME280;4706;41.844;26.082;2023-04-24T04:40:40;100715.78;;;12.64;74.05
9335;BME280;4706;41.844;26.082;2023-04-24T04:43:06;100730.25;;;12.70;74.40
9335;BME280;4706;41.844;26.082;2023-04-24T04:45:31;100725.94;;;12.78;73.71
9335;BME280;4706;41.844;26.082;2023-04-24T04:47:58;100723.47;;;12.90;73.14
9335;BME280;4706;41.844;26.082;2023-04-24T04:50:26;100728.72;;;13.00;73.12
9335;BME280;4706;41.844;26.082;2023-04-24T04:52:52;100716.56;;;13.01;73.16
9335;BME280;4706;41.844;26.082;2023-04-24T04:55:17;100718.00;;;12.99;73.65
9335;BME280;4706;41.844;26.082;2023-04-24T04:57:45;100715.09;;;13.04;73.53
9335;BME280;4706;41.844;26.082;2023-04-24T05:00:11;100706.16;;;12.98;74.37
9335;BME280;4706;41.844;26.082;2023-04-24T05:02:40;100712.59;;;13.16;74.46
9335;BME280;4706;41.844;26.082;2023-04-24T05:05:06;100712.06;;;13.28;73.82
9335;BME280;4706;41.844;26.082;2023-04-24T05:07:31;100702.31;;;13.30;73.57
9335;BME280;4706;41.844;26.082;2023-04-24T05:09:57;100699.88;;;13.29;72.91
9335;BME280;4706;41.844;26.082;2023-04-24T05:12:22;100708.53;;;13.36;73.47
9335;BME280;4706;41.844;26.082;2023-04-24T05:14:48;100713.72;;;13.38;72.06
9335;BME280;4706;41.844;26.082;2023-04-24T05:17:13;100694.47;;;13.01;72.48
9335;BME280;4706;41.844;26.082;2023-04-24T05:19:39;100703.59;;;13.24;71.85
9335;BME280;4706;41.844;26.082;2023-04-24T05:22:04;100704.63;;;13.15;72.34
9335;BME280;4706;41.844;26.082;2023-04-24T05:24:33;100704.97;;;13.35;71.82
9335;BME280;4706;41.844;26.082;2023-04-24T05:26:59;100710.59;;;13.30;72.73
9335;BME280;4706;41.844;26.082;2023-04-24T05:29:24;100703.28;;;13.26;72.40
9335;BME280;4706;41.844;26.082;2023-04-24T05:31:51;100707.97;;;13.25;72.49
9335;BME280;4706;41.844;26.082;2023-04-24T05:34:16;100705.19;;;13.48;71.63
9335;BME280;4706;41.844;26.082;2023-04-24T05:36:42;100706.22;;;13.60;71.85
9335;BME280;4706;41.844;26.082;2023-04-24T05:39:08;100715.06;;;13.80;70.67
9335;BME280;4706;41.844;26.082;2023-04-24T05:41:34;100714.69;;;14.04;71.22
9335;BME280;4706;41.844;26.082;2023-04-24T05:43:59;100710.00;;;14.13;70.27
9335;BME280;4706;41.844;26.082;2023-04-24T05:46:25;100716.03;;;14.24;70.10
9335;BME280;4706;41.844;26.082;2023-04-24T05:48:50;100724.06;;;14.43;68.39
9335;BME280;4706;41.844;26.082;2023-04-24T05:51:16;100723.28;;;14.51;68.89
9335;BME280;4706;41.844;26.082;2023-04-24T05:53:41;100720.22;;;14.61;67.90
9335;BME280;4706;41.844;26.082;2023-04-24T05:56:07;100717.59;;;14.65;67.78
9335;BME280;4706;41.844;26.082;2023-04-24T05:58:32;100715.34;;;14.75;67.42
9335;BME280;4706;41.844;26.082;2023-04-24T06:00:58;100728.19;;;14.80;66.56
9335;BME280;4706;41.844;26.082;2023-04-24T06:03:24;100719.41;;;14.61;67.54
9335;BME280;4706;41.844;26.082;2023-04-24T06:05:50;100725.91;;;14.73;67.71
9335;BME280;4706;41.844;26.082;2023-04-24T06:08:16;100723.78;;;14.53;67.76
9335;BME280;4706;41.844;26.082;2023-04-24T06:10:42;100723.25;;;14.42;68.35
9335;BME280;4706;41.844;26.082;2023-04-24T06:13:07;100719.66;;;14.42;68.78
9335;BME280;4706;41.844;26.082;2023-04-24T06:15:33;100720.31;;;14.30;68.67
9335;BME280;4706;41.844;26.082;2023-04-24T06:17:58;100703.69;;;14.30;67.81
9335;BME280;4706;41.844;26.082;2023-04-24T06:20:24;100724.13;;;14.69;67.62
9335;BME280;4706;41.844;26.082;2023-04-24T06:22:50;100713.34;;;14.50;67.60
9335;BME280;4706;41.844;26.082;2023-04-24T06:25:16;100726.25;;;14.72;66.60
9335;BME280;4706;41.844;26.082;2023-04-24T06:27:41;100716.00;;;14.90;64.94
9335;BME280;4706;41.844;26.082;2023-04-24T06:30:07;100703.59;;;14.96;65.78
9335;BME280;4706;41.844;26.082;2023-04-24T06:32:33;100717.22;;;15.44;64.63
9335;BME280;4706;41.844;26.082;2023-04-24T06:34:58;100721.75;;;15.66;63.61
9335;BME280;4706;41.844;26.082;2023-04-24T06:37:24;100720.69;;;15.88;63.28
9335;BME280;4706;41.844;26.082;2023-04-24T06:39:50;100722.34;;;16.19;63.68
9335;BME280;4706;41.844;26.082;2023-04-24T06:42:15;100718.22;;;16.25;62.03
9335;BME280;4706;41.844;26.082;2023-04-24T06:44:40;100724.66;;;16.38;61.27
9335;BME280;4706;41.844;26.082;2023-04-24T06:47:10;100710.25;;;16.44;60.96
9335;BME280;4706;41.844;26.082;2023-04-24T06:49:36;100711.50;;;16.56;60.81
9335;BME280;4706;41.844;26.082;2023-04-24T06:52:03;100710.25;;;16.74;61.40
9335;BME280;4706;41.844;26.082;2023-04-24T06:54:29;100709.66;;;16.81;60.31
9335;BME280;4706;41.844;26.082;2023-04-24T06:56:55;100716.38;;;16.59;61.02
9335;BME280;4706;41.844;26.082;2023-04-24T06:59:25;100719.94;;;16.89;60.48
9335;BME280;4706;41.844;26.082;2023-04-24T07:01:51;100717.78;;;17.40;60.32
9335;BME280;4706;41.844;26.082;2023-04-24T07:04:17;100710.81;;;17.34;58.60
9335;BME280;4706;41.844;26.082;2023-04-24T07:06:45;100703.50;;;17.29;58.36
9335;BME280;4706;41.844;26.082;2023-04-24T07:09:11;100716.75;;;17.44;58.10
9335;BME280;4706;41.844;26.082;2023-04-24T07:11:36;100707.53;;;17.53;58.39
9335;BME280;4706;41.844;26.082;2023-04-24T07:14:03;100708.34;;;17.65;57.82
9335;BME280;4706;41.844;26.082;2023-04-24T07:16:29;100710.31;;;17.53;57.96
9335;BME280;4706;41.844;26.082;2023-04-24T07:18:55;100706.50;;;17.69;57.32
9335;BME280;4706;41.844;26.082;2023-04-24T07:21:20;100704.53;;;17.70;57.66
9335;BME280;4706;41.844;26.082;2023-04-24T07:23:46;100702.53;;;17.58;57.34
9335;BME280;4706;41.844;26.082;2023-04-24T07:26:12;100701.38;;;17.59;57.22
9335;BME280;4706;41.844;26.082;2023-04-24T07:28:39;100699.50;;;17.39;57.19
9335;BME280;4706;41.844;26.082;2023-04-24T07:31:05;100695.75;;;17.80;56.61
9335;BME280;4706;41.844;26.082;2023-04-24T07:33:30;100696.91;;;18.28;54.06
9335;BME280;4706;41.844;26.082;2023-04-24T07:35:56;100695.31;;;18.03;54.71
9335;BME280;4706;41.844;26.082;2023-04-24T07:38:22;100694.84;;;18.25;54.04
9335;BME280;4706;41.844;26.082;2023-04-24T07:40:48;100681.25;;;18.24;51.88
9335;BME280;4706;41.844;26.082;2023-04-24T07:43:14;100693.63;;;18.38;51.90
9335;BME280;4706;41.844;26.082;2023-04-24T07:45:40;100698.19;;;18.43;52.03
9335;BME280;4706;41.844;26.082;2023-04-24T07:48:05;100696.13;;;18.68;52.09
9335;BME280;4706;41.844;26.082;2023-04-24T07:50:32;100681.31;;;18.52;50.44
9335;BME280;4706;41.844;26.082;2023-04-24T07:52:57;100689.78;;;18.55;51.40
9335;BME280;4706;41.844;26.082;2023-04-24T07:55:23;100693.47;;;18.72;52.11
9335;BME280;4706;41.844;26.082;2023-04-24T07:57:48;100673.91;;;18.43;51.96
9335;BME280;4706;41.844;26.082;2023-04-24T08:00:15;100689.72;;;18.39;52.90
9335;BME280;4706;41.844;26.082;2023-04-24T08:02:40;100692.81;;;18.38;52.93
9335;BME280;4706;41.844;26.082;2023-04-24T08:05:06;100678.91;;;18.90;51.74
9335;BME280;4706;41.844;26.082;2023-04-24T08:07:32;100680.50;;;18.91;51.93
9335;BME280;4706;41.844;26.082;2023-04-24T08:09:58;100681.59;;;18.87;52.48
9335;BME280;4706;41.844;26.082;2023-04-24T08:12:24;100678.56;;;18.92;52.57
9335;BME280;4706;41.844;26.082;2023-04-24T08:14:50;100684.09;;;19.20;51.39
9335;BME280;4706;41.844;26.082;2023-04-24T08:17:17;100679.31;;;19.05;52.44
9335;BME280;4706;41.844;26.082;2023-04-24T08:19:42;100680.59;;;19.23;51.99
9335;BME280;4706;41.844;26.082;2023-04-24T08:22:13;100684.47;;;19.19;53.01
9335;BME280;4706;41.844;26.082;2023-04-24T08:24:38;100670.25;;;19.08;53.10
9335;BME280;4706;41.844;26.082;2023-04-24T08:27:04;100679.91;;;19.26;52.71
9335;BME280;4706;41.844;26.082;2023-04-24T08:29:29;100678.41;;;19.45;52.37
9335;BME280;4706;41.844;26.082;2023-04-24T08:31:55;100672.19;;;19.51;52.81
9335;BME280;4706;41.844;26.082;2023-04-24T08:34:21;100664.63;;;19.52;52.45
9335;BME280;4706;41.844;26.082;2023-04-24T08:36:47;100670.78;;;19.73;52.11
9335;BME280;4706;41.844;26.082;2023-04-24T08:39:14;100671.66;;;19.61;52.81
9335;BME280;4706;41.844;26.082;2023-04-24T08:41:42;100659.59;;;19.57;53.54
9335;BME280;4706;41.844;26.082;2023-04-24T08:44:09;100664.13;;;19.62;51.71
9335;BME280;4706;41.844;26.082;2023-04-24T08:46:36;100649.06;;;19.67;52.38
9335;BME280;4706;41.844;26.082;2023-04-24T08:49:03;100659.69;;;19.77;52.69
9335;BME280;4706;41.844;26.082;2023-04-24T08:51:29;100655.03;;;19.65;53.17
9335;BME280;4706;41.844;26.082;2023-04-24T08:53:55;100651.66;;;19.28;54.15
9335;BME280;4706;41.844;26.082;2023-04-24T08:56:22;100642.47;;;19.11;53.32
9335;BME280;4706;41.844;26.082;2023-04-24T08:58:50;100640.94;;;18.86;54.99
9335;BME280;4706;41.844;26.082;2023-04-24T09:01:18;100631.06;;;18.88;54.46
9335;BME280;4706;41.844;26.082;2023-04-24T09:03:45;100635.78;;;18.72;55.44
9335;BME280;4706;41.844;26.082;2023-04-24T09:06:12;100626.66;;;18.87;55.68
9335;BME280;4706;41.844;26.082;2023-04-24T09:08:38;100630.91;;;18.97;55.58
9335;BME280;4706;41.844;26.082;2023-04-24T09:11:06;100632.75;;;19.21;54.83
9335;BME280;4706;41.844;26.082;2023-04-24T09:13:32;100625.31;;;19.57;54.37
9335;BME280;4706;41.844;26.082;2023-04-24T09:15:58;100631.44;;;19.78;53.73
9335;BME280;4706;41.844;26.082;2023-04-24T09:18:26;100618.75;;;20.16;53.49
9335;BME280;4706;41.844;26.082;2023-04-24T09:20:58;100625.38;;;19.92;51.75
9335;BME280;4706;41.844;26.082;2023-04-24T09:23:27;100613.25;;;19.69;53.46
9335;BME280;4706;41.844;26.082;2023-04-24T09:25:57;100622.53;;;19.41;53.91
9335;BME280;4706;41.844;26.082;2023-04-24T09:28:29;100615.19;;;19.21;55.18
9335;BME280;4706;41.844;26.082;2023-04-24T09:31:03;100618.88;;;19.09;55.09
9335;BME280;4706;41.844;26.082;2023-04-24T09:33:29;100607.72;;;18.93;55.49
9335;BME280;4706;41.844;26.082;2023-04-24T09:35:54;100609.50;;;19.01;55.36
9335;BME280;4706;41.844;26.082;2023-04-24T09:38:30;100611.00;;;19.27;55.98
9335;BME280;4706;41.844;26.082;2023-04-24T09:40:59;100611.81;;;19.75;55.30
9335;BME280;4706;41.844;26.082;2023-04-24T09:43:26;100608.50;;;20.04;53.18
9335;BME280;4706;41.844;26.082;2023-04-24T09:45:56;100603.88;;;20.28;53.78
9335;BME280;4706;41.844;26.082;2023-04-24T09:48:36;100604.78;;;20.51;51.84
9335;BME280;4706;41.844;26.082;2023-04-24T09:51:03;100603.44;;;20.84;51.06
9335;BME280;4706;41.844;26.082;2023-04-24T09:53:30;100599.22;;;20.94;51.79
9335;BME280;4706;41.844;26.082;2023-04-24T09:56:01;100600.22;;;21.05;51.62
9335;BME280;4706;41.844;26.082;2023-04-24T09:58:28;100599.59;;;20.92;52.33
9335;BME280;4706;41.844;26.082;2023-04-24T10:00:55;100593.28;;;20.76;51.83
9335;BME280;4706;41.844;26.082;2023-04-24T10:03:24;100587.84;;;21.06;51.35
9335;BME280;4706;41.844;26.082;2023-04-24T10:05:51;100588.97;;;21.01;51.57
9335;BME280;4706;41.844;26.082;2023-04-24T10:08:17;100584.91;;;20.76;52.80
9335;BME280;4706;41.844;26.082;2023-04-24T10:10:46;100571.25;;;20.94;52.80
9335;BME280;4706;41.844;26.082;2023-04-24T10:13:13;100586.00;;;21.14;51.40
9335;BME280;4706;41.844;26.082;2023-04-24T10:15:41;100577.72;;;21.40;51.12
9335;BME280;4706;41.844;26.082;2023-04-24T10:18:08;100567.75;;;21.43;50.99
9335;BME280;4706;41.844;26.082;2023-04-24T10:20:36;100565.03;;;21.73;50.52
9335;BME280;4706;41.844;26.082;2023-04-24T10:23:04;100563.94;;;21.54;51.99
9335;BME280;4706;41.844;26.082;2023-04-24T10:25:33;100568.09;;;21.64;50.53
9335;BME280;4706;41.844;26.082;2023-04-24T10:28:00;100562.28;;;21.50;51.16
9335;BME280;4706;41.844;26.082;2023-04-24T10:30:28;100554.78;;;21.57;51.59
9335;BME280;4706;41.844;26.082;2023-04-24T10:32:53;100556.72;;;21.53;51.28
9335;BME280;4706;41.844;26.082;2023-04-24T10:35:19;100560.63;;;21.72;50.07
9335;BME280;4706;41.844;26.082;2023-04-24T10:38:05;100544.72;;;21.79;49.87
9335;BME280;4706;41.844;26.082;2023-04-24T10:40:33;100545.66;;;21.87;49.86
9335;BME280;4706;41.844;26.082;2023-04-24T10:43:01;100546.66;;;22.02;49.74
9335;BME280;4706;41.844;26.082;2023-04-24T10:45:27;100543.63;;;22.14;49.63
9335;BME280;4706;41.844;26.082;2023-04-24T10:53:13;100533.06;;;22.04;48.79
9335;BME280;4706;41.844;26.082;2023-04-24T10:58:10;100521.84;;;22.04;48.77
9335;BME280;4706;41.844;26.082;2023-04-24T11:00:37;100521.59;;;22.13;48.96
9335;BME280;4706;41.844;26.082;2023-04-24T11:03:31;100516.09;;;22.20;47.46
9335;BME280;4706;41.844;26.082;2023-04-24T11:08:27;100500.75;;;22.44;47.49
9335;BME280;4706;41.844;26.082;2023-04-24T11:11:08;100497.41;;;22.65;48.14
9335;BME280;4706;41.844;26.082;2023-04-24T11:14:07;100489.19;;;22.86;47.40
9335;BME280;4706;41.844;26.082;2023-04-24T11:16:53;100479.59;;;22.87;46.19
9335;BME280;4706;41.844;26.082;2023-04-24T11:19:22;100480.09;;;22.96;45.19
9335;BME280;4706;41.844;26.082;2023-04-24T11:21:55;100481.25;;;22.92;46.08
9335;BME280;4706;41.844;26.082;2023-04-24T11:26:56;100482.06;;;22.92;45.92
9335;BME280;4706;41.844;26.082;2023-04-24T11:29:22;100479.69;;;22.94;45.88
9335;BME280;4706;41.844;26.082;2023-04-24T11:31:48;100460.66;;;22.77;45.73
9335;BME280;4706;41.844;26.082;2023-04-24T11:34:17;100479.69;;;22.98;46.05
9335;BME280;4706;41.844;26.082;2023-04-24T11:36:46;100468.88;;;22.96;45.77
9335;BME280;4706;41.844;26.082;2023-04-24T11:39:13;100462.31;;;22.82;45.69
9335;BME280;4706;41.844;26.082;2023-04-24T11:41:39;100455.09;;;22.81;46.31
9335;BME280;4706;41.844;26.082;2023-04-24T11:44:09;100454.91;;;22.63;46.98
9335;BME280;4706;41.844;26.082;2023-04-24T11:46:35;100458.63;;;22.74;46.03
9335;BME280;4706;41.844;26.082;2023-04-24T11:49:03;100450.06;;;23.00;45.08
9335;BME280;4706;41.844;26.082;2023-04-24T11:51:28;100439.94;;;22.89;45.46
9335;BME280;4706;41.844;26.082;2023-04-24T11:53:55;100442.59;;;23.19;44.89
9335;BME280;4706;41.844;26.082;2023-04-24T11:56:22;100426.16;;;23.17;44.78
9335;BME280;4706;41.844;26.082;2023-04-24T11:58:47;100424.50;;;23.13;45.32
9335;BME280;4706;41.844;26.082;2023-04-24T12:01:13;100431.59;;;22.96;46.11
9335;BME280;4706;41.844;26.082;2023-04-24T12:03:39;100402.50;;;23.18;46.21
9335;BME280;4706;41.844;26.082;2023-04-24T12:06:09;100412.53;;;23.19;45.10
9335;BME280;4706;41.844;26.082;2023-04-24T12:08:35;100407.41;;;23.29;44.81
9335;BME280;4706;41.844;26.082;2023-04-24T12:11:03;100407.84;;;23.38;44.63
9335;BME280;4706;41.844;26.082;2023-04-24T12:13:29;100384.56;;;23.34;44.30
9335;BME280;4706;41.844;26.082;2023-04-24T12:15:56;100395.34;;;23.24;44.56
9335;BME280;4706;41.844;26.082;2023-04-24T12:18:23;100387.25;;;23.16;44.82
9335;BME280;4706;41.844;26.082;2023-04-24T12:20:49;100391.31;;;23.22;44.76
9335;BME280;4706;41.844;26.082;2023-04-24T12:23:14;100388.09;;;23.23;44.62
9335;BME280;4706;41.844;26.082;2023-04-24T12:25:40;100378.56;;;23.35;44.63
9335;BME280;4706;41.844;26.082;2023-04-24T12:30:38;100376.84;;;23.20;45.06
9335;BME280;4706;41.844;26.082;2023-04-24T12:33:04;100373.69;;;23.21;45.76
9335;BME280;4706;41.844;26.082;2023-04-24T12:35:32;100368.97;;;23.40;45.02
9335;BME280;4706;41.844;26.082;2023-04-24T12:40:33;100366.47;;;23.27;43.80
9335;BME280;4706;41.844;26.082;2023-04-24T12:42:58;100345.19;;;23.16;44.24
9335;BME280;4706;41.844;26.082;2023-04-24T12:45:24;100345.56;;;23.14;44.42
9335;BME280;4706;41.844;26.082;2023-04-24T12:47:50;100337.94;;;23.11;44.49
9335;BME280;4706;41.844;26.082;2023-04-24T12:50:16;100349.88;;;23.01;44.81
9335;BME280;4706;41.844;26.082;2023-04-24T12:52:42;100349.09;;;22.52;46.23
9335;BME280;4706;41.844;26.082;2023-04-24T12:55:09;100336.03;;;22.71;46.14
9335;BME280;4706;41.844;26.082;2023-04-24T12:57:36;100336.13;;;22.82;46.19
9335;BME280;4706;41.844;26.082;2023-04-24T13:00:03;100324.16;;;22.88;45.01
9335;BME280;4706;41.844;26.082;2023-04-24T13:02:31;100320.03;;;22.75;45.22
9335;BME280;4706;41.844;26.082;2023-04-24T13:04:58;100322.06;;;22.78;45.90
9335;BME280;4706;41.844;26.082;2023-04-24T13:07:24;100318.41;;;22.70;47.37
9335;BME280;4706;41.844;26.082;2023-04-24T13:09:51;100312.88;;;22.81;45.78
9335;BME280;4706;41.844;26.082;2023-04-24T13:12:17;100312.44;;;22.72;46.22
9335;BME280;4706;41.844;26.082;2023-04-24T13:14:43;100304.91;;;22.83;47.23